Fall Branch, Tennessee
Current Conditions -  °F | °C
As of 2:53 AM on Monday 22 Dec 2014 (Local Time) from KTRI Reporting Station
Overcast Overcast  
Wind Chill: 38°   Ceiling: 4100
Heat Index: 38°   Visibility: 10mi
Dew Point: 34°   Wind: 0mph
Humidity: 86%   Direction: NA
Pressure: 30.09"   Gusts: NA
Location:  36.42°N, 82.62°W
Report Text: KTRI 220753Z 00000KT 10SM BKN041 OVC055 03/01 A3009 RMK AO2 SLP180 T00330011
Loading
Personal Weather Stations






























Interactive Weather Map New forecast layout! Learn more

10-Day Weather Forecast

Advertisements
Track Severe Weather on mobile